QTR1058 OTHH-OMSJ
Flight info
| Callsign | QTR1058 |
|---|---|
| Flight time | 0h 43m |
| Altitude | 21000 |
| Route | ALSEM L305 EMOTA R784 GONVI |
| Aircraft | A20N/M-SDE2E3FGHIRWXY/LB1 |
Departure
| Time | 2026-05-08 15:27 |
|---|---|
| Airport | Hamad International Airport (OTHH) |
Arrival
| Time | 2026-05-08 16:10 |
|---|---|
| Airport | Sharjah International Airport (OMSJ) |
| Time | Latitude | Longitude | Altitude | Speed | Heading |
|---|---|---|---|---|---|
| 2026-05-08 14:00 | 25.26523 | 51.61268 | 9 ft | 0 kts | 248° |
| 2026-05-08 15:17 | 25.26526 | 51.61276 | 9 ft | 2 kts | 248° |
| 2026-05-08 15:17 | 25.26531 | 51.61290 | 9 ft | 2 kts | 248° |
| 2026-05-08 15:17 | 25.26536 | 51.61304 | 9 ft | 2 kts | 248° |
| 2026-05-08 15:18 | 25.26541 | 51.61317 | 9 ft | 2 kts | 248° |
| 2026-05-08 15:18 | 25.26547 | 51.61332 | 9 ft | 2 kts | 248° |
| 2026-05-08 15:18 | 25.26552 | 51.61345 | 9 ft | 1 kts | 248° |
| 2026-05-08 15:18 | 25.26555 | 51.61354 | 9 ft | 2 kts | 240° |
| 2026-05-08 15:19 | 25.26568 | 51.61366 | 9 ft | 2 kts | 198° |
| 2026-05-08 15:19 | 25.26586 | 51.61367 | 9 ft | 0 kts | 162° |
| 2026-05-08 15:19 | 25.26593 | 51.61364 | 9 ft | 0 kts | 158° |
| 2026-05-08 15:21 | 25.26592 | 51.61364 | 9 ft | 0 kts | 158° |
| 2026-05-08 15:21 | 25.26580 | 51.61369 | 9 ft | 3 kts | 158° |
| 2026-05-08 15:22 | 25.26550 | 51.61383 | 9 ft | 5 kts | 158° |
| 2026-05-08 15:22 | 25.26502 | 51.61404 | 9 ft | 8 kts | 158° |
| 2026-05-08 15:22 | 25.26436 | 51.61433 | 9 ft | 10 kts | 159° |
| 2026-05-08 15:22 | 25.26393 | 51.61501 | 9 ft | 11 kts | 78° |
| 2026-05-08 15:23 | 25.26430 | 51.61606 | 9 ft | 12 kts | 68° |
| 2026-05-08 15:23 | 25.26470 | 51.61715 | 9 ft | 13 kts | 68° |
| 2026-05-08 15:23 | 25.26516 | 51.61841 | 9 ft | 14 kts | 68° |
| 2026-05-08 15:23 | 25.26487 | 51.61952 | 9 ft | 15 kts | 159° |
| 2026-05-08 15:24 | 25.26360 | 51.62008 | 9 ft | 16 kts | 158° |
| 2026-05-08 15:24 | 25.26229 | 51.62065 | 9 ft | 17 kts | 158° |
| 2026-05-08 15:24 | 25.26088 | 51.62127 | 9 ft | 18 kts | 158° |
| 2026-05-08 15:24 | 25.25942 | 51.62192 | 9 ft | 19 kts | 158° |
| 2026-05-08 15:25 | 25.25796 | 51.62257 | 9 ft | 19 kts | 158° |
| 2026-05-08 15:25 | 25.25643 | 51.62323 | 9 ft | 20 kts | 158° |
| 2026-05-08 15:25 | 25.25580 | 51.62410 | 9 ft | 14 kts | 73° |
| 2026-05-08 15:25 | 25.25624 | 51.62529 | 9 ft | 14 kts | 64° |
| 2026-05-08 15:26 | 25.25724 | 51.62591 | 9 ft | 15 kts | 355° |
| 2026-05-08 15:26 | 25.25940 | 51.62501 | 9 ft | 58 kts | 338° |
| 2026-05-08 15:26 | 25.26714 | 51.62158 | 10 ft | 131 kts | 338° |
| 2026-05-08 15:26 | 25.27897 | 51.61633 | 210 ft | 166 kts | 339° |
| 2026-05-08 15:27 | 25.29106 | 51.61099 | 809 ft | 169 kts | 345° |
| 2026-05-08 15:27 | 25.30354 | 51.61177 | 1603 ft | 167 kts | 16° |
| 2026-05-08 15:27 | 25.31528 | 51.61765 | 2209 ft | 174 kts | 22° |
| 2026-05-08 15:27 | 25.32821 | 51.62469 | 2586 ft | 192 kts | 23° |
| 2026-05-08 15:28 | 25.34239 | 51.63216 | 2869 ft | 216 kts | 23° |
| 2026-05-08 15:28 | 25.35815 | 51.64016 | 3295 ft | 235 kts | 23° |
| 2026-05-08 15:28 | 25.37529 | 51.64866 | 3740 ft | 253 kts | 22° |
| 2026-05-08 15:28 | 25.39212 | 51.66051 | 3893 ft | 265 kts | 49° |
| 2026-05-08 15:29 | 25.39999 | 51.68145 | 3992 ft | 274 kts | 80° |
| 2026-05-08 15:29 | 25.40169 | 51.70516 | 3997 ft | 274 kts | 83° |
| 2026-05-08 15:29 | 25.40333 | 51.72884 | 3996 ft | 274 kts | 82° |
| 2026-05-08 15:29 | 25.40553 | 51.75244 | 3993 ft | 273 kts | 81° |
| 2026-05-08 15:30 | 25.40816 | 51.77605 | 3997 ft | 273 kts | 79° |
| 2026-05-08 15:30 | 25.41100 | 51.79960 | 4007 ft | 273 kts | 79° |
| 2026-05-08 15:30 | 25.41395 | 51.82339 | 3962 ft | 273 kts | 79° |
| 2026-05-08 15:30 | 25.41690 | 51.84692 | 4002 ft | 273 kts | 79° |
| 2026-05-08 15:31 | 25.41901 | 51.87048 | 4027 ft | 274 kts | 87° |
| 2026-05-08 15:31 | 25.41686 | 51.89465 | 4115 ft | 284 kts | 98° |
| 2026-05-08 15:31 | 25.41215 | 51.91873 | 4883 ft | 287 kts | 101° |
| 2026-05-08 15:31 | 25.40721 | 51.94256 | 5790 ft | 285 kts | 101° |
| 2026-05-08 15:32 | 25.40219 | 51.96679 | 6593 ft | 288 kts | 102° |
| 2026-05-08 15:32 | 25.39720 | 51.99108 | 7371 ft | 292 kts | 102° |
| 2026-05-08 15:32 | 25.39223 | 52.01543 | 8138 ft | 295 kts | 102° |
| 2026-05-08 15:32 | 25.38715 | 52.04048 | 8907 ft | 299 kts | 102° |
| 2026-05-08 15:33 | 25.38204 | 52.06565 | 9656 ft | 304 kts | 103° |
| 2026-05-08 15:33 | 25.37686 | 52.09136 | 10406 ft | 308 kts | 104° |
| 2026-05-08 15:33 | 25.37146 | 52.11800 | 10841 ft | 324 kts | 104° |
| 2026-05-08 15:33 | 25.36571 | 52.14617 | 11198 ft | 342 kts | 105° |
| 2026-05-08 15:34 | 25.35975 | 52.17568 | 11525 ft | 360 kts | 103° |
| 2026-05-08 15:34 | 25.35694 | 52.20774 | 11843 ft | 379 kts | 91° |
| 2026-05-08 15:34 | 25.36009 | 52.24092 | 12286 ft | 393 kts | 82° |
| 2026-05-08 15:34 | 25.36638 | 52.27448 | 12957 ft | 397 kts | 80° |
| 2026-05-08 15:35 | 25.37306 | 52.30835 | 13650 ft | 400 kts | 81° |
| 2026-05-08 15:35 | 25.37974 | 52.34273 | 14289 ft | 404 kts | 81° |
| 2026-05-08 15:35 | 25.38631 | 52.37712 | 14893 ft | 408 kts | 81° |
| 2026-05-08 15:35 | 25.39287 | 52.41180 | 15472 ft | 412 kts | 80° |
| 2026-05-08 15:36 | 25.39946 | 52.44679 | 16051 ft | 416 kts | 80° |
| 2026-05-08 15:36 | 25.40399 | 52.47087 | 16435 ft | 418 kts | 80° |
| 2026-05-08 15:36 | 25.41289 | 52.51837 | 17165 ft | 423 kts | 80° |
| 2026-05-08 15:36 | 25.41970 | 52.55479 | 17698 ft | 427 kts | 80° |
| 2026-05-08 15:37 | 25.42644 | 52.59082 | 18210 ft | 430 kts | 80° |
| 2026-05-08 15:37 | 25.43333 | 52.62776 | 18719 ft | 434 kts | 80° |
| 2026-05-08 15:37 | 25.44016 | 52.66441 | 19215 ft | 437 kts | 80° |
| 2026-05-08 15:37 | 25.44712 | 52.70185 | 19714 ft | 440 kts | 80° |
| 2026-05-08 15:38 | 25.45409 | 52.73941 | 20204 ft | 444 kts | 80° |
| 2026-05-08 15:38 | 25.46109 | 52.77705 | 20660 ft | 447 kts | 80° |
| 2026-05-08 15:38 | 25.46821 | 52.81540 | 20795 ft | 448 kts | 80° |
| 2026-05-08 15:38 | 25.47601 | 52.85307 | 20800 ft | 448 kts | 77° |
| 2026-05-08 15:39 | 25.48517 | 52.89082 | 20805 ft | 447 kts | 76° |
| 2026-05-08 15:39 | 25.49449 | 52.92839 | 20803 ft | 447 kts | 76° |
| 2026-05-08 15:39 | 25.50378 | 52.96585 | 20800 ft | 447 kts | 76° |
| 2026-05-08 15:39 | 25.51310 | 53.00353 | 20799 ft | 447 kts | 76° |
| 2026-05-08 15:40 | 25.52241 | 53.04140 | 20799 ft | 446 kts | 76° |
| 2026-05-08 15:40 | 25.53156 | 53.07863 | 20796 ft | 446 kts | 76° |
| 2026-05-08 15:40 | 25.54073 | 53.11608 | 20793 ft | 446 kts | 76° |
| 2026-05-08 15:40 | 25.54997 | 53.15382 | 20798 ft | 446 kts | 76° |
| 2026-05-08 15:41 | 25.55905 | 53.19103 | 20793 ft | 446 kts | 76° |
| 2026-05-08 15:41 | 25.56831 | 53.22900 | 20791 ft | 446 kts | 76° |
| 2026-05-08 15:41 | 25.57741 | 53.26636 | 20797 ft | 446 kts | 76° |
| 2026-05-08 15:41 | 25.58661 | 53.30419 | 20790 ft | 446 kts | 76° |
| 2026-05-08 15:42 | 25.59562 | 53.34128 | 20790 ft | 446 kts | 76° |
| 2026-05-08 15:42 | 25.60479 | 53.37907 | 20793 ft | 446 kts | 76° |
| 2026-05-08 15:42 | 25.61386 | 53.41641 | 20791 ft | 446 kts | 76° |
| 2026-05-08 15:42 | 25.62302 | 53.45412 | 20789 ft | 445 kts | 76° |
| 2026-05-08 15:43 | 25.63204 | 53.49129 | 20790 ft | 445 kts | 76° |
| 2026-05-08 15:43 | 25.64120 | 53.52908 | 20787 ft | 445 kts | 76° |
| 2026-05-08 15:43 | 25.65025 | 53.56654 | 20785 ft | 445 kts | 76° |
| 2026-05-08 15:43 | 25.65933 | 53.60422 | 20781 ft | 445 kts | 76° |
| 2026-05-08 15:44 | 25.66843 | 53.64200 | 20781 ft | 445 kts | 76° |
| 2026-05-08 15:44 | 25.67734 | 53.67909 | 20775 ft | 444 kts | 77° |
| 2026-05-08 15:44 | 25.68640 | 53.71675 | 20779 ft | 444 kts | 77° |
| 2026-05-08 15:44 | 25.69536 | 53.75403 | 20777 ft | 445 kts | 77° |
| 2026-05-08 15:45 | 25.70436 | 53.79153 | 20776 ft | 444 kts | 77° |
| 2026-05-08 15:45 | 25.71337 | 53.82917 | 20773 ft | 444 kts | 77° |
| 2026-05-08 15:45 | 25.72239 | 53.86695 | 20775 ft | 444 kts | 77° |
| 2026-05-08 15:45 | 25.73128 | 53.90423 | 20781 ft | 444 kts | 77° |
| 2026-05-08 15:46 | 25.74027 | 53.94197 | 20783 ft | 444 kts | 77° |
| 2026-05-08 15:46 | 25.74920 | 53.97953 | 20783 ft | 445 kts | 77° |
| 2026-05-08 15:46 | 25.75885 | 54.01655 | 20781 ft | 445 kts | 73° |
| 2026-05-08 15:46 | 25.77029 | 54.05344 | 20778 ft | 445 kts | 72° |
| 2026-05-08 15:47 | 25.78190 | 54.08970 | 20776 ft | 445 kts | 71° |
| 2026-05-08 15:47 | 25.79371 | 54.12649 | 20664 ft | 444 kts | 72° |
| 2026-05-08 15:47 | 25.80550 | 54.16340 | 20393 ft | 442 kts | 72° |
| 2026-05-08 15:47 | 25.81702 | 54.19957 | 20125 ft | 439 kts | 72° |
| 2026-05-08 15:48 | 25.83990 | 54.27163 | 19588 ft | 434 kts | 72° |
| 2026-05-08 15:48 | 25.85135 | 54.30778 | 19314 ft | 432 kts | 72° |
| 2026-05-08 15:48 | 25.86257 | 54.34322 | 19048 ft | 430 kts | 71° |
| 2026-05-08 15:49 | 25.87271 | 54.37940 | 18763 ft | 427 kts | 80° |
| 2026-05-08 15:49 | 25.87454 | 54.41636 | 18440 ft | 422 kts | 96° |
| 2026-05-08 15:49 | 25.86733 | 54.45238 | 18033 ft | 416 kts | 109° |
| 2026-05-08 15:49 | 25.85640 | 54.48670 | 17518 ft | 413 kts | 110° |
| 2026-05-08 15:50 | 25.84520 | 54.52085 | 16937 ft | 409 kts | 110° |
| 2026-05-08 15:50 | 25.83428 | 54.55460 | 16327 ft | 406 kts | 110° |
| 2026-05-08 15:50 | 25.82365 | 54.58790 | 15713 ft | 403 kts | 110° |
| 2026-05-08 15:50 | 25.81302 | 54.62143 | 15084 ft | 400 kts | 110° |
| 2026-05-08 15:51 | 25.80261 | 54.65432 | 14469 ft | 397 kts | 111° |
| 2026-05-08 15:51 | 25.79223 | 54.68709 | 13854 ft | 394 kts | 111° |
| 2026-05-08 15:51 | 25.78190 | 54.71963 | 13418 ft | 384 kts | 111° |
| 2026-05-08 15:51 | 25.77197 | 54.75087 | 13156 ft | 371 kts | 111° |
| 2026-05-08 15:52 | 25.76243 | 54.78083 | 12953 ft | 356 kts | 111° |
| 2026-05-08 15:52 | 25.75317 | 54.80987 | 12746 ft | 343 kts | 111° |
| 2026-05-08 15:52 | 25.74432 | 54.83759 | 12558 ft | 331 kts | 111° |
| 2026-05-08 15:52 | 25.73578 | 54.86431 | 12388 ft | 318 kts | 111° |
| 2026-05-08 15:53 | 25.72753 | 54.89016 | 12237 ft | 306 kts | 111° |
| 2026-05-08 15:53 | 25.71966 | 54.91478 | 12103 ft | 293 kts | 111° |
| 2026-05-08 15:53 | 25.71206 | 54.93853 | 11980 ft | 281 kts | 111° |
| 2026-05-08 15:53 | 25.70472 | 54.96151 | 11962 ft | 281 kts | 111° |
| 2026-05-08 15:54 | 25.69734 | 54.98464 | 11968 ft | 282 kts | 111° |
| 2026-05-08 15:54 | 25.68994 | 55.00790 | 11819 ft | 278 kts | 111° |
| 2026-05-08 15:54 | 25.68185 | 55.03043 | 11370 ft | 279 kts | 117° |
| 2026-05-08 15:54 | 25.67165 | 55.05204 | 10943 ft | 278 kts | 121° |
| 2026-05-08 15:55 | 25.66078 | 55.07296 | 10491 ft | 276 kts | 122° |
| 2026-05-08 15:55 | 25.63893 | 55.11479 | 9433 ft | 274 kts | 121° |
| 2026-05-08 15:55 | 25.62815 | 55.13551 | 8935 ft | 273 kts | 121° |
| 2026-05-08 15:56 | 25.61745 | 55.15612 | 8433 ft | 272 kts | 121° |
| 2026-05-08 15:56 | 25.60670 | 55.17680 | 8040 ft | 269 kts | 120° |
| 2026-05-08 15:56 | 25.59606 | 55.19733 | 7979 ft | 272 kts | 120° |
| 2026-05-08 15:56 | 25.58543 | 55.21782 | 7973 ft | 272 kts | 120° |
| 2026-05-08 15:57 | 25.57482 | 55.23830 | 7969 ft | 272 kts | 120° |
| 2026-05-08 15:57 | 25.56424 | 55.25882 | 7962 ft | 272 kts | 120° |
| 2026-05-08 15:57 | 25.55356 | 55.27951 | 7982 ft | 272 kts | 120° |
| 2026-05-08 15:57 | 25.54294 | 55.30006 | 7986 ft | 272 kts | 120° |
| 2026-05-08 15:58 | 25.53231 | 55.32061 | 7960 ft | 271 kts | 120° |
| 2026-05-08 15:58 | 25.52172 | 55.34085 | 7740 ft | 267 kts | 120° |
| 2026-05-08 15:58 | 25.51105 | 55.36114 | 7322 ft | 269 kts | 120° |
| 2026-05-08 15:58 | 25.50049 | 55.38124 | 6947 ft | 268 kts | 120° |
| 2026-05-08 15:59 | 25.48976 | 55.40168 | 6582 ft | 267 kts | 119° |
| 2026-05-08 15:59 | 25.47926 | 55.42159 | 6223 ft | 266 kts | 120° |
| 2026-05-08 15:59 | 25.46832 | 55.44161 | 5995 ft | 264 kts | 120° |
| 2026-05-08 15:59 | 25.45746 | 55.46138 | 5995 ft | 266 kts | 120° |
| 2026-05-08 16:00 | 25.44652 | 55.48124 | 5995 ft | 267 kts | 121° |
| 2026-05-08 16:00 | 25.43515 | 55.50072 | 5993 ft | 267 kts | 122° |
| 2026-05-08 16:00 | 25.42371 | 55.51991 | 5994 ft | 267 kts | 122° |
| 2026-05-08 16:00 | 25.41221 | 55.53924 | 5993 ft | 266 kts | 122° |
| 2026-05-08 16:01 | 25.40069 | 55.55866 | 5992 ft | 266 kts | 122° |
| 2026-05-08 16:01 | 25.38930 | 55.57790 | 5993 ft | 266 kts | 122° |
| 2026-05-08 16:01 | 25.37787 | 55.59736 | 5994 ft | 266 kts | 121° |
| 2026-05-08 16:01 | 25.36705 | 55.61673 | 5995 ft | 267 kts | 120° |
| 2026-05-08 16:02 | 25.35607 | 55.63670 | 5998 ft | 267 kts | 120° |
| 2026-05-08 16:02 | 25.34520 | 55.65643 | 5987 ft | 265 kts | 120° |
| 2026-05-08 16:02 | 25.33443 | 55.67592 | 5615 ft | 263 kts | 121° |
| 2026-05-08 16:02 | 25.32360 | 55.69549 | 5100 ft | 265 kts | 121° |
| 2026-05-08 16:03 | 25.31270 | 55.71513 | 4618 ft | 264 kts | 121° |
| 2026-05-08 16:03 | 25.30176 | 55.73483 | 4133 ft | 264 kts | 121° |
| 2026-05-08 16:03 | 25.29094 | 55.75429 | 3656 ft | 264 kts | 121° |
| 2026-05-08 16:03 | 25.28014 | 55.77333 | 3364 ft | 255 kts | 123° |
| 2026-05-08 16:04 | 25.26942 | 55.79162 | 3006 ft | 250 kts | 123° |
| 2026-05-08 16:04 | 25.25633 | 55.80740 | 2544 ft | 247 kts | 152° |
| 2026-05-08 16:04 | 25.23841 | 55.81259 | 2175 ft | 238 kts | 188° |
| 2026-05-08 16:04 | 25.22212 | 55.80560 | 2020 ft | 218 kts | 226° |
| 2026-05-08 16:05 | 25.21393 | 55.79087 | 2022 ft | 202 kts | 256° |
| 2026-05-08 16:05 | 25.21026 | 55.77393 | 2024 ft | 201 kts | 261° |
| 2026-05-08 16:05 | 25.20749 | 55.75713 | 2019 ft | 201 kts | 262° |
| 2026-05-08 16:05 | 25.20682 | 55.74001 | 2009 ft | 198 kts | 284° |
| 2026-05-08 16:06 | 25.21219 | 55.72417 | 2018 ft | 197 kts | 298° |
| 2026-05-08 16:06 | 25.22010 | 55.70957 | 2014 ft | 198 kts | 302° |
| 2026-05-08 16:06 | 25.22865 | 55.69521 | 2012 ft | 198 kts | 303° |
| 2026-05-08 16:06 | 25.23722 | 55.68071 | 2011 ft | 198 kts | 302° |
| 2026-05-08 16:07 | 25.24550 | 55.66643 | 2084 ft | 188 kts | 302° |
| 2026-05-08 16:07 | 25.25314 | 55.65314 | 2028 ft | 170 kts | 302° |
| 2026-05-08 16:07 | 25.25994 | 55.64127 | 1985 ft | 151 kts | 302° |
| 2026-05-08 16:07 | 25.26620 | 55.63033 | 1969 ft | 148 kts | 301° |
| 2026-05-08 16:08 | 25.27255 | 55.61926 | 1822 ft | 149 kts | 301° |
| 2026-05-08 16:08 | 25.27895 | 55.60812 | 1617 ft | 147 kts | 301° |
| 2026-05-08 16:08 | 25.28522 | 55.59720 | 1380 ft | 143 kts | 301° |
| 2026-05-08 16:08 | 25.29141 | 55.58644 | 1163 ft | 142 kts | 301° |
| 2026-05-08 16:09 | 25.29760 | 55.57569 | 955 ft | 142 kts | 301° |
| 2026-05-08 16:09 | 25.30169 | 55.56858 | 824 ft | 141 kts | 301° |
| 2026-05-08 16:09 | 25.30990 | 55.55430 | 554 ft | 141 kts | 301° |
| 2026-05-08 16:09 | 25.31614 | 55.54346 | 339 ft | 140 kts | 301° |
| 2026-05-08 16:10 | 25.32237 | 55.53262 | 147 ft | 139 kts | 301° |
| 2026-05-08 16:10 | 25.32811 | 55.52261 | 108 ft | 100 kts | 303° |
| 2026-05-08 16:10 | 25.33120 | 55.51727 | 102 ft | 30 kts | 306° |
| 2026-05-08 16:10 | 25.33190 | 55.51510 | 100 ft | 23 kts | 278° |
| 2026-05-08 16:11 | 25.33200 | 55.51328 | 103 ft | 7 kts | 273° |
| 2026-05-08 16:11 | 25.33201 | 55.51324 | 103 ft | 0 kts | 272° |
| 2026-05-08 16:12 | 25.33201 | 55.51310 | 103 ft | 5 kts | 272° |
| 2026-05-08 16:12 | 25.33204 | 55.51243 | 101 ft | 9 kts | 272° |
| 2026-05-08 16:13 | 25.33211 | 55.51140 | 100 ft | 12 kts | 278° |
| 2026-05-08 16:13 | 25.33257 | 55.51027 | 100 ft | 14 kts | 303° |
| 2026-05-08 16:13 | 25.33303 | 55.50923 | 100 ft | 11 kts | 260° |
| 2026-05-08 16:13 | 25.33233 | 55.50852 | 98 ft | 13 kts | 212° |
| 2026-05-08 16:14 | 25.33147 | 55.50882 | 97 ft | 14 kts | 123° |
| 2026-05-08 16:14 | 25.33067 | 55.50935 | 97 ft | 14 kts | 211° |
| 2026-05-08 16:14 | 25.33007 | 55.50895 | 95 ft | 4 kts | 179° |
| 2026-05-08 16:14 | 25.32975 | 55.50931 | 95 ft | 7 kts | 122° |
| 2026-05-08 16:15 | 25.32967 | 55.50944 | 95 ft | 0 kts | 123° |